Terminal Aerodrome Forecast
Issued by NWS

Home | Current Version | Previous Version | Text Only | Print | Product List | Glossary On
Versions: 1 2 3 4 5 6 7 8 9 10 11 12 13 14 15
000
FTUS42 KTBW 251700 RRA
TAFPIE
TAF
KPIE 251741Z 2518/2618 22004KT P6SM SCT045 SCT250
     FM260000 25005KT P6SM FEW150 SCT250
     FM260400 00000KT P6SM SCT200
     FM261300 VRB03KT P6SM VCTS SCT035CB SCT250=

USA.gov is the U.S. government's official web portal to all federal, state and local government web resources and services.